createdAt,value
2019-04-10T00:01:23.689Z,79.49
2019-04-10T00:03:55.320Z,79.68
2019-04-10T00:06:27.893Z,79.62
2019-04-10T00:08:59.653Z,79.16
2019-04-10T00:11:32.335Z,78.64
2019-04-10T00:14:04.156Z,78.35
2019-04-10T00:16:36.167Z,78.46
2019-04-10T00:19:08.735Z,78.48
2019-04-10T00:21:40.455Z,79.68
2019-04-10T00:24:12.026Z,79.29
2019-04-10T00:26:43.612Z,79.86
2019-04-10T00:29:16.138Z,80.27
2019-04-10T00:31:48.702Z,80.51
2019-04-10T00:34:21.231Z,81.12
2019-04-10T00:36:53.352Z,80.73
2019-04-10T00:39:24.955Z,78.81
2019-04-10T00:41:56.811Z,79.67
2019-04-10T00:44:28.431Z,79.93
2019-04-10T00:47:00.232Z,79.82
2019-04-10T00:49:33.525Z,79.50
2019-04-10T00:52:06.016Z,80.02
2019-04-10T00:54:37.703Z,79.61
2019-04-10T00:57:09.484Z,79.00
2019-04-10T00:59:42.076Z,79.56
2019-04-10T01:02:13.783Z,79.80
2019-04-10T01:04:45.398Z,79.66
2019-04-10T01:07:16.994Z,80.16
2019-04-10T01:09:48.575Z,80.03
2019-04-10T01:12:20.167Z,79.49
2019-04-10T01:14:51.724Z,79.58
2019-04-10T01:17:24.285Z,80.41
2019-04-10T01:19:56.490Z,80.50
2019-04-10T01:22:28.204Z,80.53
2019-04-10T01:24:59.891Z,79.82
2019-04-10T01:27:31.977Z,80.29
2019-04-10T01:30:04.273Z,80.47
2019-04-10T01:32:37.613Z,79.37
2019-04-10T01:35:09.942Z,79.67
2019-04-10T01:37:51.457Z,80.09
2019-04-10T01:40:15.016Z,78.75
2019-04-10T01:42:59.964Z,78.26
2019-04-10T01:45:19.849Z,78.02
2019-04-10T01:47:51.475Z,78.04
2019-04-10T01:50:23.234Z,78.09
2019-04-10T01:52:55.525Z,78.51
2019-04-10T01:55:30.267Z,79.12
2019-04-10T01:58:03.036Z,78.42
2019-04-10T02:00:35.692Z,78.78
2019-04-10T02:03:07.304Z,79.19
2019-04-10T02:05:38.940Z,79.46
2019-04-10T02:08:13.554Z,79.80
2019-04-10T02:10:44.670Z,80.33
2019-04-10T02:13:17.158Z,79.55
2019-04-10T02:15:48.841Z,78.18
2019-04-10T02:18:21.378Z,78.56
2019-04-10T02:20:54.194Z,78.51
2019-04-10T02:23:26.081Z,78.74
2019-04-10T02:25:57.696Z,78.62
2019-04-10T02:28:29.275Z,78.70
2019-04-10T02:31:02.377Z,78.57
2019-04-10T02:33:35.616Z,77.83
2019-04-10T02:36:08.490Z,77.46
2019-04-10T02:38:54.530Z,76.22
2019-04-10T02:41:14.135Z,76.67
2019-04-10T02:43:47.327Z,77.05
2019-04-10T02:46:19.669Z,76.51
2019-04-10T02:48:51.962Z,77.05
2019-04-10T02:51:25.541Z,77.55
2019-04-10T02:53:57.965Z,77.18
2019-04-10T02:56:30.811Z,76.24
2019-04-10T02:59:04.988Z,76.49
2019-04-10T03:01:37.897Z,76.03
2019-04-10T03:04:11.386Z,76.37
2019-04-10T03:06:43.067Z,76.07
2019-04-10T03:09:32.195Z,76.99
2019-04-10T03:11:47.998Z,77.24
2019-04-10T03:14:21.035Z,76.99
2019-04-10T03:16:53.847Z,76.71
2019-04-10T03:19:25.579Z,77.25
2019-04-10T03:21:57.662Z,77.24
2019-04-10T03:24:29.508Z,77.76
2019-04-10T03:27:01.743Z,77.21
2019-04-10T03:29:33.363Z,76.46
2019-04-10T03:32:23.246Z,76.43
2019-04-10T03:34:59.107Z,76.68
2019-04-10T03:37:30.711Z,76.46
2019-04-10T03:40:03.489Z,76.71
2019-04-10T03:42:35.099Z,76.69
2019-04-10T03:45:07.569Z,77.06
2019-04-10T03:47:39.725Z,77.10
2019-04-10T03:50:11.684Z,76.42
2019-04-10T03:52:43.336Z,75.37
2019-04-10T03:55:16.731Z,75.81
2019-04-10T03:57:49.104Z,76.20
2019-04-10T04:00:21.095Z,76.80
2019-04-10T04:02:54.032Z,76.72
2019-04-10T04:05:26.617Z,76.88
2019-04-10T04:08:01.201Z,76.52
2019-04-10T04:10:32.981Z,77.74
2019-04-10T04:13:06.040Z,76.58
2019-04-10T04:15:37.990Z,76.78
2019-04-10T04:18:09.552Z,77.30
2019-04-10T04:20:41.297Z,77.43
2019-04-10T04:23:13.774Z,76.81
2019-04-10T04:25:46.234Z,75.30
2019-04-10T04:28:18.908Z,75.88
2019-04-10T04:30:52.340Z,77.04
2019-04-10T04:33:23.864Z,77.35
2019-04-10T04:35:55.476Z,77.06
2019-04-10T04:38:27.700Z,76.73
2019-04-10T04:41:00.448Z,77.35
2019-04-10T04:43:32.742Z,77.16
2019-04-10T04:46:04.403Z,77.12
2019-04-10T04:48:36.894Z,77.15
2019-04-10T04:51:09.007Z,77.25
2019-04-10T04:53:40.655Z,77.44
2019-04-10T04:56:13.359Z,77.61
2019-04-10T04:58:45.626Z,77.40
2019-04-10T05:01:18.916Z,77.27
2019-04-10T05:03:51.208Z,76.12
2019-04-10T05:06:24.846Z,76.69
2019-04-10T05:08:56.887Z,77.22
2019-04-10T05:11:28.842Z,76.83
2019-04-10T05:14:00.891Z,76.90
2019-04-10T05:16:32.982Z,76.86
2019-04-10T05:19:04.563Z,76.44
2019-04-10T05:21:37.287Z,76.19
2019-04-10T05:24:08.973Z,76.99
2019-04-10T05:26:40.614Z,75.55
2019-04-10T05:29:13.170Z,76.01
2019-04-10T05:31:44.859Z,76.65
2019-04-10T05:34:16.488Z,76.56
2019-04-10T05:36:49.052Z,75.98
2019-04-10T05:39:20.802Z,76.28
2019-04-10T05:41:52.395Z,75.52
2019-04-10T05:44:24.019Z,75.82
2019-04-10T05:46:55.605Z,75.79
2019-04-10T05:49:27.251Z,75.80
2019-04-10T05:51:58.871Z,75.10
2019-04-10T05:54:31.120Z,72.93
2019-04-10T05:57:04.001Z,73.80
2019-04-10T05:59:36.854Z,73.18
2019-04-10T06:02:09.406Z,73.93
2019-04-10T06:04:41.248Z,73.61
2019-04-10T06:07:12.880Z,73.63
2019-04-10T06:09:54.040Z,74.14
2019-04-10T06:12:18.155Z,73.11
2019-04-10T06:14:52.517Z,73.51
2019-04-10T06:17:24.657Z,73.52
2019-04-10T06:19:56.695Z,73.60
2019-04-10T06:22:30.237Z,73.02
2019-04-10T06:25:03.916Z,73.84
2019-04-10T06:27:36.737Z,74.13
2019-04-10T06:30:09.970Z,72.69
2019-04-10T06:32:41.580Z,73.35
2019-04-10T06:35:13.617Z,72.15
2019-04-10T06:37:46.290Z,72.01
2019-04-10T06:40:21.257Z,72.78
2019-04-10T06:42:53.942Z,73.27
2019-04-10T06:45:24.598Z,72.21
2019-04-10T06:47:56.163Z,72.25
2019-04-10T06:50:29.439Z,72.80
2019-04-10T06:53:01.165Z,73.30
2019-04-10T06:55:32.760Z,71.84
2019-04-10T06:58:04.372Z,72.70
2019-04-10T07:00:36.946Z,71.32
2019-04-10T07:03:08.707Z,69.53
2019-04-10T07:05:49.689Z,67.24
2019-04-10T07:08:19.048Z,68.27
2019-04-10T07:10:55.419Z,67.19
2019-04-10T07:13:21.287Z,67.12
2019-04-10T07:15:56.325Z,67.92
2019-04-10T07:18:26.425Z,68.78
2019-04-10T07:21:01.070Z,66.63
2019-04-10T07:23:32.354Z,67.08
2019-04-10T07:26:06.019Z,67.23
2019-04-10T07:28:39.116Z,68.11
2019-04-10T07:31:11.652Z,67.48
2019-04-10T07:33:47.138Z,67.11
2019-04-10T07:36:16.644Z,67.16
2019-04-10T07:38:48.914Z,66.52
2019-04-10T07:41:23.076Z,67.08
2019-04-10T07:43:55.841Z,67.17
2019-04-10T07:46:28.211Z,68.12
2019-04-10T07:49:00.701Z,66.73
2019-04-10T07:51:34.099Z,66.53
2019-04-10T07:54:06.126Z,66.26
2019-04-10T07:56:37.781Z,66.36
2019-04-10T07:59:09.381Z,66.22
2019-04-10T08:01:41.976Z,65.99
2019-04-10T08:04:14.888Z,65.39
2019-04-10T08:06:46.874Z,66.40
2019-04-10T08:09:18.887Z,66.38
2019-04-10T08:11:50.991Z,65.66
2019-04-10T08:14:23.723Z,66.62
2019-04-10T08:16:55.436Z,65.77
2019-04-10T08:19:28.176Z,66.10
2019-04-10T08:22:01.203Z,66.97
2019-04-10T08:24:33.083Z,65.48
2019-04-10T08:27:05.874Z,65.18
2019-04-10T08:29:39.336Z,64.85
2019-04-10T08:32:11.876Z,66.13
2019-04-10T08:34:44.275Z,64.34
2019-04-10T08:37:18.757Z,65.60
2019-04-10T08:39:51.405Z,65.18
2019-04-10T08:42:24.469Z,64.91
2019-04-10T08:44:56.405Z,64.97
2019-04-10T08:47:28.047Z,64.38
2019-04-10T08:49:59.709Z,65.35
2019-04-10T08:52:32.507Z,64.09
2019-04-10T08:55:04.221Z,64.14
2019-04-10T08:57:38.171Z,65.08
2019-04-10T09:00:12.206Z,64.36
2019-04-10T09:02:44.445Z,63.11
2019-04-10T09:05:17.956Z,63.21
2019-04-10T09:07:50.553Z,64.17
2019-04-10T09:10:22.649Z,62.98
2019-04-10T09:12:54.571Z,63.08
2019-04-10T09:15:27.743Z,62.53
2019-04-10T09:17:59.812Z,63.09
2019-04-10T09:20:31.422Z,63.76
2019-04-10T09:23:29.777Z,64.61
2019-04-10T09:25:37.496Z,63.49
2019-04-10T09:28:10.285Z,63.45
2019-04-10T09:30:42.763Z,62.94
2019-04-10T09:33:20.980Z,63.41
2019-04-10T09:35:48.861Z,63.02
2019-04-10T09:38:20.951Z,62.11
2019-04-10T09:40:53.303Z,62.20
2019-04-10T09:43:25.371Z,62.18
2019-04-10T09:45:56.967Z,62.52
2019-04-10T09:48:28.565Z,61.96
2019-04-10T09:51:00.314Z,61.85
2019-04-10T09:53:32.937Z,60.60
2019-04-10T09:56:05.257Z,60.79
2019-04-10T09:58:36.855Z,60.84
2019-04-10T10:01:14.760Z,61.15
2019-04-10T10:03:46.561Z,61.11
2019-04-10T10:06:27.167Z,61.78
2019-04-10T10:08:52.304Z,60.72
2019-04-10T10:11:24.589Z,61.54
2019-04-10T10:13:56.428Z,61.47
2019-04-10T10:16:30.165Z,62.19
2019-04-10T10:19:01.646Z,60.93
2019-04-10T10:21:33.212Z,60.88
2019-04-10T10:24:05.004Z,60.01
2019-04-10T10:26:36.607Z,60.88
2019-04-10T10:29:09.046Z,59.04
2019-04-10T10:31:40.761Z,59.78
2019-04-10T10:34:12.399Z,60.94
2019-04-10T10:36:47.372Z,59.42
2019-04-10T10:39:21.086Z,58.24
2019-04-10T10:41:54.434Z,58.83
2019-04-10T10:44:26.044Z,59.76
2019-04-10T10:46:57.988Z,59.43
2019-04-10T10:49:30.632Z,57.99
2019-04-10T10:52:03.578Z,58.15
2019-04-10T10:54:35.293Z,58.28
2019-04-10T10:57:07.088Z,59.43
2019-04-10T10:59:39.718Z,59.89
2019-04-10T11:02:12.459Z,58.14
2019-04-10T11:04:45.287Z,59.15
2019-04-10T11:07:18.713Z,57.81
2019-04-10T11:09:52.904Z,58.47
2019-04-10T11:12:24.591Z,58.12
2019-04-10T11:14:56.319Z,58.50
2019-04-10T11:17:28.294Z,58.53
2019-04-10T11:20:02.284Z,58.78
2019-04-10T11:22:35.447Z,59.08
2019-04-10T11:25:08.053Z,58.83
2019-04-10T11:27:41.859Z,57.56
2019-04-10T11:30:13.962Z,58.31
2019-04-10T11:32:46.278Z,57.39
2019-04-10T11:35:19.061Z,58.05
2019-04-10T11:37:53.599Z,57.75
2019-04-10T11:40:26.476Z,57.38
2019-04-10T11:42:58.166Z,56.84
2019-04-10T11:45:40.698Z,57.22
2019-04-10T11:48:05.989Z,56.82
2019-04-10T11:50:38.604Z,56.98
2019-04-10T11:53:10.606Z,55.89
2019-04-10T11:55:47.801Z,56.40
2019-04-10T11:58:17.782Z,56.07
2019-04-10T12:00:52.441Z,56.24
2019-04-10T12:03:24.632Z,56.83
2019-04-10T12:05:57.719Z,56.80
2019-04-10T12:08:50.330Z,56.11
2019-04-10T12:13:34.536Z,56.18
2019-04-10T12:16:07.073Z,56.14
2019-04-10T12:18:38.826Z,56.24
2019-04-10T12:21:10.449Z,56.50
2019-04-10T12:23:43.131Z,56.22
2019-04-10T12:26:15.838Z,56.04
2019-04-10T12:28:47.593Z,56.53
2019-04-10T12:31:19.744Z,55.81
2019-04-10T12:33:51.422Z,56.45
2019-04-10T12:36:23.022Z,56.57
2019-04-10T12:38:54.650Z,54.82
2019-04-10T12:41:26.242Z,54.43
2019-04-10T12:43:59.040Z,53.88
2019-04-10T12:46:30.742Z,54.85
2019-04-10T12:49:03.723Z,53.52
2019-04-10T12:51:36.301Z,53.64
2019-04-10T12:54:08.023Z,53.02
2019-04-10T12:56:40.165Z,53.92
2019-04-10T12:59:12.059Z,54.48
2019-04-10T13:01:44.798Z,54.64
2019-04-10T13:04:17.936Z,54.53
2019-04-10T13:06:52.345Z,55.54
2019-04-10T13:09:24.132Z,56.47
2019-04-10T13:11:56.524Z,55.06
2019-04-10T13:14:28.614Z,55.09
2019-04-10T13:17:00.597Z,53.58
2019-04-10T13:19:34.164Z,52.99
2019-04-10T13:22:05.616Z,52.44
2019-04-10T13:24:37.539Z,54.79
2019-04-10T13:27:10.371Z,54.29
2019-04-10T13:29:42.657Z,51.64
2019-04-10T13:32:14.385Z,51.90
2019-04-10T13:34:45.995Z,51.77
2019-04-10T13:37:17.995Z,52.70
2019-04-10T13:39:49.672Z,52.84
2019-04-10T13:42:23.141Z,52.05
2019-04-10T13:44:55.743Z,51.86
2019-04-10T13:47:29.120Z,52.01
2019-04-10T13:50:00.850Z,53.26
2019-04-10T13:52:33.003Z,52.02
2019-04-10T13:55:05.264Z,51.65
2019-04-10T13:57:36.968Z,51.33
2019-04-10T14:00:13.440Z,51.94
2019-04-10T14:02:45.762Z,51.60
2019-04-10T14:05:17.991Z,51.81
2019-04-10T14:07:49.564Z,51.19
2019-04-10T14:10:21.575Z,51.94
2019-04-10T14:12:53.559Z,51.96
2019-04-10T14:15:30.143Z,51.67
2019-04-10T14:18:01.953Z,51.82
2019-04-10T14:20:33.737Z,52.03
2019-04-10T14:23:18.464Z,52.29
2019-04-10T14:26:02.303Z,51.60
2019-04-10T14:28:34.069Z,52.32
2019-04-10T14:31:11.725Z,52.06
2019-04-10T14:33:43.338Z,51.67
2019-04-10T14:36:15.902Z,52.31
2019-04-10T14:38:47.611Z,51.96
2019-04-10T14:41:20.041Z,52.47
2019-04-10T14:43:51.701Z,52.12
2019-04-10T14:46:24.224Z,52.18
2019-04-10T14:48:56.996Z,51.72
2019-04-10T14:51:28.613Z,51.43
2019-04-10T14:54:00.212Z,51.21
2019-04-10T14:56:32.454Z,50.96
2019-04-10T14:59:04.173Z,51.73
2019-04-10T15:01:36.057Z,51.63
2019-04-10T15:04:08.745Z,51.07
2019-04-10T15:06:41.645Z,50.36
2019-04-10T15:09:25.849Z,51.38
2019-04-10T15:11:55.608Z,50.84
2019-04-10T15:14:27.842Z,50.26
2019-04-10T15:17:04.263Z,49.89
2019-04-10T15:19:32.979Z,49.76
2019-04-10T15:22:04.584Z,49.34
2019-04-10T15:24:36.235Z,49.63
2019-04-10T15:27:08.927Z,49.83
2019-04-10T15:29:40.914Z,49.95
2019-04-10T15:32:12.793Z,49.92
2019-04-10T15:34:44.441Z,49.58
2019-04-10T15:37:17.120Z,50.06
2019-04-10T15:39:49.718Z,49.86
2019-04-10T15:42:21.777Z,49.94
2019-04-10T15:44:54.468Z,50.41
2019-04-10T15:47:27.031Z,50.44
2019-04-10T15:49:59.875Z,50.50
2019-04-10T15:52:31.642Z,50.40
2019-04-10T15:55:03.702Z,50.42
2019-04-10T15:57:46.994Z,51.21
2019-04-10T16:00:10.949Z,50.65
2019-04-10T16:02:42.971Z,51.02
2019-04-10T16:05:15.426Z,51.80
2019-04-10T16:07:47.429Z,51.62
2019-04-10T16:10:37.180Z,51.87
2019-04-10T16:13:32.552Z,51.77
2019-04-10T16:16:19.434Z,51.54
2019-04-10T16:18:52.842Z,51.78
2019-04-10T16:21:24.776Z,51.41
2019-04-10T16:24:01.052Z,51.96
2019-04-10T16:26:33.584Z,51.74
2019-04-10T16:29:05.475Z,51.94
2019-04-10T16:31:37.640Z,51.56
2019-04-10T16:34:09.427Z,51.48
2019-04-10T16:36:41.650Z,52.43
2019-04-10T16:39:15.835Z,52.21
2019-04-10T16:41:50.254Z,51.26
2019-04-10T16:44:22.011Z,51.64
2019-04-10T16:46:55.890Z,52.24
2019-04-10T16:49:27.483Z,51.90
2019-04-10T16:51:59.134Z,52.47
2019-04-10T16:54:31.296Z,51.89
2019-04-10T16:57:02.992Z,51.65
2019-04-10T16:59:34.562Z,52.44
2019-04-10T17:02:07.223Z,53.18
2019-04-10T17:04:39.633Z,51.91
2019-04-10T17:07:11.595Z,52.64
2019-04-10T17:09:43.894Z,53.01
2019-04-10T17:12:17.573Z,51.44
2019-04-10T17:14:49.467Z,51.91
2019-04-10T17:17:21.861Z,51.57
2019-04-10T17:19:57.199Z,51.51
2019-04-10T17:22:35.757Z,51.55
2019-04-10T17:25:00.509Z,51.54
2019-04-10T17:27:32.182Z,51.40
2019-04-10T17:30:05.281Z,52.41
2019-04-10T17:32:38.669Z,53.12
2019-04-10T17:35:11.885Z,53.23
2019-04-10T17:37:45.621Z,52.49
2019-04-10T17:40:31.070Z,52.40
2019-04-10T17:42:52.712Z,53.15
2019-04-10T17:45:25.844Z,53.01
2019-04-10T17:48:17.795Z,52.96
2019-04-10T17:50:49.873Z,53.59
2019-04-10T17:53:23.047Z,53.49
2019-04-10T17:55:55.944Z,53.30
2019-04-10T17:58:27.649Z,53.81
2019-04-10T18:01:01.855Z,53.70
2019-04-10T18:03:43.008Z,53.95
2019-04-10T18:06:06.980Z,54.83
2019-04-10T18:08:38.624Z,53.71
2019-04-10T18:11:10.261Z,53.27
2019-04-10T18:13:42.766Z,55.32
2019-04-10T18:16:14.833Z,54.56
2019-04-10T18:18:49.747Z,53.65
2019-04-10T18:21:22.487Z,53.63
2019-04-10T18:23:54.049Z,53.44
2019-04-10T18:26:25.759Z,53.79
2019-04-10T18:28:58.244Z,53.46
2019-04-10T18:31:31.035Z,53.99
2019-04-10T18:34:03.884Z,53.98
2019-04-10T18:36:36.335Z,54.27
2019-04-10T18:39:13.952Z,54.96
2019-04-10T18:41:46.575Z,54.66
2019-04-10T18:44:18.403Z,55.21
2019-04-10T18:46:50.035Z,56.54
2019-04-10T18:49:21.655Z,56.91
2019-04-10T18:51:54.282Z,55.80
2019-04-10T18:54:26.975Z,55.17
2019-04-10T18:56:59.712Z,54.82
2019-04-10T19:00:02.330Z,54.54
2019-04-10T19:03:13.114Z,54.49
2019-04-10T19:05:48.085Z,54.18
2019-04-10T19:08:19.910Z,53.99
2019-04-10T19:10:51.738Z,53.46
2019-04-10T19:13:24.941Z,52.95
2019-04-10T19:15:57.276Z,52.72
2019-04-10T19:18:29.861Z,54.16
2019-04-10T19:21:01.568Z,53.79
2019-04-10T19:23:33.235Z,53.83
2019-04-10T19:26:08.481Z,53.34
2019-04-10T19:28:41.837Z,54.14
2019-04-10T19:31:19.448Z,54.11
2019-04-10T19:33:49.139Z,54.42
2019-04-10T19:36:20.752Z,54.78
2019-04-10T19:38:52.491Z,54.60
2019-04-10T19:41:32.783Z,54.16
2019-04-10T19:43:59.714Z,54.72
2019-04-10T19:46:31.448Z,54.43
2019-04-10T19:49:03.920Z,54.92
2019-04-10T19:51:36.390Z,55.26
2019-04-10T19:54:09.638Z,54.29
2019-04-10T19:56:43.146Z,53.89
2019-04-10T19:59:14.752Z,55.35
2019-04-10T20:01:46.543Z,54.46
2019-04-10T20:04:18.825Z,53.78
2019-04-10T20:06:50.425Z,52.31
2019-04-10T20:09:22.233Z,52.57
2019-04-10T20:11:56.205Z,51.46
2019-04-10T20:14:28.365Z,51.24
2019-04-10T20:17:00.127Z,52.34
2019-04-10T20:19:32.775Z,52.14
2019-04-10T20:22:04.592Z,51.53
2019-04-10T20:24:36.745Z,51.86
2019-04-10T20:27:08.398Z,51.67
2019-04-10T20:29:41.305Z,52.23
2019-04-10T20:32:14.099Z,51.61
2019-04-10T20:34:45.910Z,51.56
2019-04-10T20:37:18.564Z,51.93
2019-04-10T20:39:51.722Z,52.27
2019-04-10T20:42:24.033Z,52.11
2019-04-10T20:44:56.868Z,52.82
2019-04-10T20:47:28.509Z,53.10
2019-04-10T20:50:00.243Z,52.92
2019-04-10T20:52:32.544Z,53.05
2019-04-10T20:55:05.585Z,53.41
2019-04-10T20:57:37.526Z,51.64
2019-04-10T21:00:11.456Z,51.89
2019-04-10T21:02:43.150Z,51.68
2019-04-10T21:05:16.341Z,51.62
2019-04-10T21:07:48.167Z,52.14
2019-04-10T21:10:19.772Z,52.22
2019-04-10T21:12:52.469Z,51.99
2019-04-10T21:15:24.234Z,52.13
2019-04-10T21:17:56.963Z,52.70
2019-04-10T21:20:28.808Z,52.62
2019-04-10T21:23:01.378Z,52.50
2019-04-10T21:25:33.086Z,52.49
2019-04-10T21:28:04.878Z,52.80
2019-04-10T21:31:07.673Z,53.26
2019-04-10T21:34:01.403Z,53.02
2019-04-10T21:36:34.971Z,52.75
2019-04-10T21:39:09.503Z,53.13
2019-04-10T21:41:42.098Z,53.42
2019-04-10T21:44:14.787Z,52.90
2019-04-10T21:46:46.697Z,52.97
2019-04-10T21:49:18.274Z,53.28
2019-04-10T21:51:49.918Z,52.96
2019-04-10T21:54:22.410Z,53.21
2019-04-10T21:56:55.505Z,53.28
2019-04-10T21:59:27.249Z,53.09
2019-04-10T22:01:59.332Z,53.65
2019-04-10T22:04:31.064Z,53.59
2019-04-10T22:07:22.357Z,52.83
2019-04-10T22:10:09.813Z,53.44
2019-04-10T22:12:46.940Z,53.36
2019-04-10T22:15:35.885Z,53.74
2019-04-10T22:18:07.461Z,53.94
2019-04-10T22:20:39.573Z,53.98
2019-04-10T22:23:11.706Z,53.78
2019-04-10T22:25:43.769Z,54.11
2019-04-10T22:28:15.444Z,53.93
2019-04-10T22:30:48.317Z,54.51
2019-04-10T22:33:20.269Z,54.08
2019-04-10T22:35:52.542Z,54.59
2019-04-10T22:38:25.039Z,54.57
2019-04-10T22:40:56.671Z,54.32
2019-04-10T22:43:28.275Z,54.67
2019-04-10T22:46:00.478Z,54.94
2019-04-10T22:48:33.251Z,55.25
2019-04-10T22:51:07.949Z,55.23
2019-04-10T22:53:39.525Z,55.50
2019-04-10T22:56:11.238Z,55.53
2019-04-10T22:58:44.089Z,55.30
2019-04-10T23:01:15.930Z,55.14
2019-04-10T23:03:47.646Z,55.20
2019-04-10T23:06:19.204Z,55.28
2019-04-10T23:08:51.698Z,54.85
2019-04-10T23:11:33.415Z,55.10
2019-04-10T23:13:56.708Z,55.17
2019-04-10T23:16:28.452Z,55.01
2019-04-10T23:19:00.088Z,54.83
2019-04-10T23:21:32.438Z,55.16
2019-04-10T23:24:05.513Z,54.83
2019-04-10T23:26:37.508Z,54.76
2019-04-10T23:29:09.310Z,54.93
2019-04-10T23:31:43.901Z,55.36
2019-04-10T23:34:16.614Z,54.88
2019-04-10T23:36:48.673Z,55.39
2019-04-10T23:39:20.306Z,55.33
2019-04-10T23:41:52.451Z,55.38
2019-04-10T23:44:24.869Z,55.81
2019-04-10T23:46:57.783Z,55.05
2019-04-10T23:49:29.849Z,54.92
2019-04-10T23:52:01.537Z,54.88
2019-04-10T23:54:33.378Z,54.74
2019-04-10T23:57:05.226Z,54.75
2019-04-10T23:59:37.134Z,54.66
